Time;durP1;ratioP1;P1;durP2;ratioP2;P2;SDS_P1;SDS_P2;PMS_P1;PMS_P2;Temp;Humidity;BMP_temperature;BMP_pressure;BME280_temperature;BME280_humidity;BME280_pressure;Samples;Min_cycle;Max_cycle;Signal;HPM_P1;HPM_P2
2023/12/15 00:02:14;;;;;;;1999.90;999.90;;;6.90;99.90;;;;;;5028628;28;20033;-71
2023/12/15 00:04:40;;;;;;;1999.90;999.90;;;7.00;99.90;;;;;;5033536;28;20108;-71
2023/12/15 00:07:06;;;;;;;1999.90;999.90;;;7.00;99.90;;;;;;5033761;28;20487;-71
2023/12/15 00:09:31;;;;;;;1999.90;999.90;;;7.00;99.90;;;;;;5029900;28;20116;-71
2023/12/15 00:11:57;;;;;;;1999.90;999.90;;;7.00;99.90;;;;;;5025849;28;20346;-71
2023/12/15 00:14:23;;;;;;;1999.90;999.90;;;7.00;99.90;;;;;;5030132;28;20024;-71
2023/12/15 00:16:48;;;;;;;1999.90;999.90;;;7.00;99.90;;;;;;5034418;28;20018;-71
2023/12/15 00:19:14;;;;;;;1999.90;999.90;;;7.00;99.90;;;;;;5034251;28;20087;-71
2023/12/15 00:21:39;;;;;;;1999.90;999.90;;;7.00;99.90;;;;;;5032993;28;20021;-71
2023/12/15 00:24:08;;;;;;;1999.90;999.90;;;7.00;99.90;;;;;;5034876;28;20049;-70
2023/12/15 00:26:37;;;;;;;1999.90;999.90;;;7.00;99.90;;;;;;5031913;28;20424;-71
2023/12/15 00:29:03;;;;;;;1999.90;999.90;;;7.00;99.90;;;;;;5033554;28;20033;-71
2023/12/15 00:31:29;;;;;;;1999.90;999.90;;;7.00;99.90;;;;;;5034052;28;20101;-71
2023/12/15 00:33:55;;;;;;;1999.90;999.90;;;7.00;99.90;;;;;;5034359;28;20258;-71
2023/12/15 00:36:21;;;;;;;1999.90;999.90;;;7.10;99.90;;;;;;5033456;28;20416;-71
2023/12/15 00:38:46;;;;;;;1999.90;999.90;;;7.00;99.90;;;;;;5029563;28;20095;-71
2023/12/15 00:41:12;;;;;;;1999.90;999.90;;;7.00;99.90;;;;;;5034324;28;20079;-71
2023/12/15 00:43:38;;;;;;;1999.90;999.90;;;7.00;99.90;;;;;;5034597;28;20139;-71
2023/12/15 00:46:04;;;;;;;1999.90;999.90;;;7.00;99.90;;;;;;5029016;28;20029;-70
2023/12/15 00:48:29;;;;;;;1999.90;999.90;;;7.10;99.90;;;;;;5037380;28;20105;-71
2023/12/15 00:50:55;;;;;;;1999.90;999.90;;;7.00;99.90;;;;;;5035035;28;20353;-71
2023/12/15 00:53:21;;;;;;;1999.90;999.90;;;7.10;99.90;;;;;;5033480;28;20025;-70
2023/12/15 00:55:47;;;;;;;1999.90;999.90;;;7.10;99.90;;;;;;5031123;28;20472;-70
2023/12/15 00:58:13;;;;;;;1999.90;999.90;;;7.10;99.90;;;;;;5030827;28;20100;-71
2023/12/15 01:00:39;;;;;;;1999.90;999.90;;;7.10;99.90;;;;;;5033406;28;20048;-71
2023/12/15 01:03:05;;;;;;;1999.90;999.90;;;7.10;99.90;;;;;;5027343;28;20429;-71
2023/12/15 01:05:31;;;;;;;1999.90;999.90;;;7.10;99.90;;;;;;5025630;28;20058;-71
2023/12/15 01:07:56;;;;;;;1999.90;999.90;;;7.10;99.90;;;;;;5032401;28;20710;-70
2023/12/15 01:10:22;;;;;;;1999.90;999.90;;;7.10;99.90;;;;;;5030450;28;20312;-71
2023/12/15 01:12:48;;;;;;;1999.90;999.90;;;7.10;99.90;;;;;;5033417;28;20060;-71
2023/12/15 01:15:14;;;;;;;1999.90;999.90;;;7.10;99.90;;;;;;5032808;28;20687;-71
2023/12/15 01:17:39;;;;;;;1999.90;999.90;;;7.10;99.90;;;;;;5033149;28;20037;-70
2023/12/15 01:20:06;;;;;;;1999.90;999.90;;;7.10;99.90;;;;;;5033843;28;20025;-70
2023/12/15 01:22:31;;;;;;;1999.90;999.90;;;7.10;99.90;;;;;;5033895;28;20056;-70
2023/12/15 01:24:57;;;;;;;1999.90;999.90;;;7.10;99.90;;;;;;5033170;28;20050;-71
2023/12/15 01:27:23;;;;;;;1999.90;999.90;;;7.10;99.90;;;;;;5033554;28;20018;-70
2023/12/15 01:29:49;;;;;;;1999.90;999.90;;;7.10;99.90;;;;;;5033393;28;20719;-70
2023/12/15 01:32:14;;;;;;;1999.90;999.90;;;7.10;99.90;;;;;;5033751;28;20119;-71
2023/12/15 01:34:40;;;;;;;1999.90;999.90;;;7.10;99.90;;;;;;5033322;28;20025;-70
2023/12/15 01:37:07;;;;;;;1999.90;999.90;;;7.10;99.90;;;;;;5033655;28;20021;-70
2023/12/15 01:39:32;;;;;;;1999.90;999.90;;;7.10;99.90;;;;;;5033774;28;20029;-71
2023/12/15 01:41:58;;;;;;;1999.90;999.90;;;7.10;99.90;;;;;;5032541;28;20340;-70
2023/12/15 01:44:24;;;;;;;1999.90;999.90;;;7.10;99.90;;;;;;5033741;28;20036;-71
2023/12/15 01:46:49;;;;;;;1999.90;999.90;;;7.10;99.90;;;;;;5030909;28;20034;-71
2023/12/15 01:49:15;;;;;;;1999.90;999.90;;;7.10;99.90;;;;;;5022054;28;20037;-71
2023/12/15 01:51:41;;;;;;;1999.90;999.90;;;7.10;99.90;;;;;;5019112;28;20153;-71
2023/12/15 01:54:07;;;;;;;1999.90;999.90;;;7.10;99.90;;;;;;5015784;28;20348;-69
2023/12/15 01:56:33;;;;;;;1999.90;999.90;;;7.10;99.90;;;;;;5025152;28;20041;-71
2023/12/15 01:58:58;;;;;;;1999.90;999.90;;;7.00;99.90;;;;;;5015250;28;20099;-70
2023/12/15 02:01:24;;;;;;;1999.90;999.90;;;7.00;99.90;;;;;;5026725;28;20037;-71
2023/12/15 02:03:49;;;;;;;1999.90;999.90;;;7.00;99.90;;;;;;5030458;28;20040;-71
2023/12/15 02:06:15;;;;;;;1999.90;999.90;;;7.00;99.90;;;;;;5028478;28;20113;-70
2023/12/15 02:08:45;;;;;;;1999.90;999.90;;;7.00;99.90;;;;;;5018558;28;20427;-71
2023/12/15 02:11:10;;;;;;;1999.90;999.90;;;7.00;99.90;;;;;;5034274;28;20028;-71
2023/12/15 02:13:36;;;;;;;1999.90;999.90;;;7.00;99.90;;;;;;5016768;28;20025;-71
2023/12/15 02:16:02;;;;;;;1999.90;999.90;;;7.10;99.90;;;;;;5026406;28;20463;-71
2023/12/15 02:18:28;;;;;;;1999.90;999.90;;;7.00;99.90;;;;;;5030885;28;20029;-71
2023/12/15 02:20:53;;;;;;;1999.90;999.90;;;7.00;99.90;;;;;;5034653;28;20018;-70
2023/12/15 02:23:19;;;;;;;1999.90;999.90;;;7.00;99.90;;;;;;5017721;28;20026;-71
2023/12/15 02:25:45;;;;;;;1999.90;999.90;;;7.00;99.90;;;;;;5021759;28;20056;-71
2023/12/15 02:28:10;;;;;;;1999.90;999.90;;;7.00;99.90;;;;;;5042173;28;20021;-71
2023/12/15 02:30:36;;;;;;;1999.90;999.90;;;7.00;99.90;;;;;;5055157;28;20045;-70
2023/12/15 02:33:02;;;;;;;1999.90;999.90;;;7.00;99.90;;;;;;5035853;28;20057;-71
2023/12/15 02:35:28;;;;;;;1999.90;999.90;;;7.00;99.90;;;;;;5046798;28;20039;-71
2023/12/15 02:37:53;;;;;;;1999.90;999.90;;;7.00;99.90;;;;;;5053310;28;20037;-70
2023/12/15 02:40:19;;;;;;;1999.90;999.90;;;7.00;99.90;;;;;;5022823;28;20030;-71
2023/12/15 02:42:44;;;;;;;1999.90;999.90;;;7.00;99.90;;;;;;5036438;28;20051;-70
2023/12/15 02:45:10;;;;;;;1999.90;999.90;;;7.00;99.90;;;;;;5035039;28;20328;-71
2023/12/15 02:47:36;;;;;;;1999.90;999.90;;;7.10;99.90;;;;;;5017299;28;20104;-71
2023/12/15 02:50:02;;;;;;;1999.90;999.90;;;7.00;99.90;;;;;;5028691;28;20108;-71
2023/12/15 02:52:27;;;;;;;1999.90;999.90;;;7.00;99.90;;;;;;5018713;28;20062;-71
2023/12/15 02:54:53;;;;;;;1999.90;999.90;;;7.00;99.90;;;;;;5027968;28;20071;-71
2023/12/15 02:57:18;;;;;;;1999.90;999.90;;;6.90;99.90;;;;;;5030579;28;20059;-71
2023/12/15 02:59:44;;;;;;;1999.90;999.90;;;7.00;99.90;;;;;;5030170;28;20034;-71
2023/12/15 03:02:10;;;;;;;1999.90;999.90;;;7.00;99.90;;;;;;5016292;28;20046;-71
2023/12/15 03:04:36;;;;;;;1999.90;999.90;;;7.00;99.90;;;;;;5031142;28;20029;-70
2023/12/15 03:07:01;;;;;;;1999.90;999.90;;;7.00;99.90;;;;;;5025445;28;20033;-71
2023/12/15 03:09:27;;;;;;;1999.90;999.90;;;7.00;99.90;;;;;;5032553;28;20375;-71
2023/12/15 03:11:52;;;;;;;1999.90;999.90;;;7.00;99.90;;;;;;5027877;28;20018;-71
2023/12/15 03:14:18;;;;;;;1999.90;999.90;;;7.00;99.90;;;;;;5030055;28;20033;-70
2023/12/15 03:16:44;;;;;;;1999.90;999.90;;;7.00;99.90;;;;;;5035332;28;20040;-71
2023/12/15 03:19:09;;;;;;;1999.90;999.90;;;7.00;99.90;;;;;;5034499;28;20044;-70
2023/12/15 03:21:35;;;;;;;1999.90;999.90;;;7.00;99.90;;;;;;5035192;28;20025;-71
2023/12/15 03:24:01;;;;;;;1999.90;999.90;;;7.00;99.90;;;;;;5035682;28;20060;-71
2023/12/15 03:26:26;;;;;;;1999.90;999.90;;;7.00;99.90;;;;;;5031480;28;20034;-71
2023/12/15 03:28:53;;;;;;;1999.90;999.90;;;7.00;99.90;;;;;;5027978;28;20104;-71
2023/12/15 03:31:18;;;;;;;1999.90;999.90;;;7.00;99.90;;;;;;5028225;28;20036;-71
2023/12/15 03:33:45;;;;;;;1999.90;999.90;;;7.00;99.90;;;;;;5022474;28;20021;-71
2023/12/15 03:36:10;;;;;;;1999.90;999.90;;;7.00;99.90;;;;;;5028835;28;20424;-71
2023/12/15 03:38:36;;;;;;;1999.90;999.90;;;7.00;99.90;;;;;;5031244;28;20044;-71
2023/12/15 03:41:02;;;;;;;1999.90;999.90;;;6.90;99.90;;;;;;5035409;28;20436;-71
2023/12/15 03:43:27;;;;;;;1999.90;999.90;;;6.90;99.90;;;;;;5019071;28;20396;-71
2023/12/15 03:45:53;;;;;;;1999.90;999.90;;;6.90;99.90;;;;;;5029187;28;20032;-71
2023/12/15 03:48:19;;;;;;;1999.90;999.90;;;7.00;99.90;;;;;;5031825;28;20029;-71
2023/12/15 03:50:44;;;;;;;1999.90;999.90;;;7.00;99.90;;;;;;5035556;28;20032;-71
2023/12/15 03:53:10;;;;;;;1999.90;999.90;;;7.00;99.90;;;;;;5026284;28;20120;-71
2023/12/15 03:55:36;;;;;;;1999.90;999.90;;;7.00;99.90;;;;;;5035220;28;20033;-70
2023/12/15 03:58:01;;;;;;;1999.90;999.90;;;7.10;99.90;;;;;;5032015;28;20083;-70
2023/12/15 04:00:28;;;;;;;1999.90;999.90;;;7.10;99.90;;;;;;5023739;28;20412;-71
2023/12/15 04:02:54;;;;;;;1999.90;999.90;;;7.10;99.90;;;;;;5034698;28;20025;-71
2023/12/15 04:05:20;;;;;;;1999.90;999.90;;;7.10;99.90;;;;;;5028744;28;20045;-71
2023/12/15 04:07:46;;;;;;;1999.90;999.90;;;7.10;99.90;;;;;;5027658;28;20033;-70
2023/12/15 04:10:12;;;;;;;1999.90;999.90;;;7.10;99.90;;;;;;5033841;28;20021;-70
2023/12/15 04:12:37;;;;;;;1999.90;999.90;;;7.20;99.90;;;;;;5035146;28;20048;-70
2023/12/15 04:15:04;;;;;;;1999.90;999.90;;;7.20;99.90;;;;;;5034441;28;20096;-71
2023/12/15 04:17:30;;;;;;;1999.90;999.90;;;7.10;99.90;;;;;;5034537;28;20112;-71
2023/12/15 04:19:55;;;;;;;1999.90;999.90;;;7.20;99.90;;;;;;5034305;28;20479;-71
2023/12/15 04:22:22;;;;;;;1999.90;999.90;;;7.20;99.90;;;;;;5034820;28;20033;-70
2023/12/15 04:24:49;;;;;;;1999.90;999.90;;;7.20;99.90;;;;;;5034566;28;20021;-71
2023/12/15 04:27:14;;;;;;;1999.90;999.90;;;7.20;99.90;;;;;;5020317;28;20029;-70
2023/12/15 04:29:40;;;;;;;1999.90;999.90;;;7.20;99.90;;;;;;5034337;28;20071;-70
2023/12/15 04:32:06;;;;;;;1999.90;999.90;;;7.20;99.90;;;;;;5031667;28;20132;-71
2023/12/15 04:34:33;;;;;;;1999.90;999.90;;;7.20;99.90;;;;;;5023318;28;20634;-71
2023/12/15 04:36:59;;;;;;;1999.90;999.90;;;7.20;99.90;;;;;;5020245;28;20040;-70
2023/12/15 04:39:25;;;;;;;1999.90;999.90;;;7.20;99.90;;;;;;5034641;28;20029;-71
2023/12/15 04:41:51;;;;;;;1999.90;999.90;;;7.20;99.90;;;;;;5034352;28;20045;-71
2023/12/15 04:44:16;;;;;;;1999.90;999.90;;;7.20;99.90;;;;;;5033692;28;20024;-71
2023/12/15 04:46:42;;;;;;;1999.90;999.90;;;7.20;99.90;;;;;;5034217;28;20405;-71
2023/12/15 04:49:08;;;;;;;1999.90;999.90;;;7.20;99.90;;;;;;5024225;28;20428;-71
2023/12/15 04:51:33;;;;;;;1999.90;999.90;;;7.30;99.90;;;;;;5033165;28;20036;-70
2023/12/15 04:53:59;;;;;;;1999.90;999.90;;;7.30;99.90;;;;;;5033980;28;20392;-71
2023/12/15 04:56:25;;;;;;;1999.90;999.90;;;7.30;99.90;;;;;;5019676;28;20139;-70
2023/12/15 04:58:51;;;;;;;1999.90;999.90;;;7.30;99.90;;;;;;5032800;28;20424;-71
2023/12/15 05:01:17;;;;;;;1999.90;999.90;;;7.30;99.90;;;;;;5031109;28;20044;-71
2023/12/15 05:03:44;;;;;;;1999.90;999.90;;;7.30;99.90;;;;;;5033621;28;20036;-71
2023/12/15 05:06:20;;;;;;;1999.90;999.90;;;7.40;99.90;;;;;;5032112;28;20071;-71
2023/12/15 05:08:47;;;;;;;1999.90;999.90;;;7.40;99.90;;;;;;5034300;28;20019;-71
2023/12/15 05:11:13;;;;;;;;;;;7.40;99.90;;;;;;5033348;28;20036;-70
2023/12/15 05:13:39;;;;;;;1999.90;999.90;;;7.30;99.90;;;;;;5032571;28;19913;-70
2023/12/15 05:16:06;;;;;;;1999.90;999.90;;;7.40;99.90;;;;;;5033267;28;20034;-71
2023/12/15 05:18:31;;;;;;;;;;;7.30;99.90;;;;;;5031821;28;20052;-71
2023/12/15 05:20:57;;;;;;;1999.90;999.90;;;7.30;99.90;;;;;;5035660;28;20264;-71
2023/12/15 05:23:22;;;;;;;1999.90;999.90;;;7.30;99.90;;;;;;5041324;28;20029;-71
2023/12/15 05:25:48;;;;;;;1999.90;999.90;;;7.30;99.90;;;;;;5051902;28;20033;-71
2023/12/15 05:28:14;;;;;;;1999.90;999.90;;;7.30;99.90;;;;;;5024473;28;20029;-71
2023/12/15 05:30:40;;;;;;;1999.90;999.90;;;7.20;99.90;;;;;;5042977;28;20026;-71
2023/12/15 05:33:06;;;;;;;1999.90;999.90;;;7.30;99.90;;;;;;5033236;28;20041;-70
2023/12/15 05:35:32;;;;;;;1999.90;999.90;;;7.30;99.90;;;;;;5041266;28;20052;-71
2023/12/15 05:37:58;;;;;;;1999.90;999.90;;;7.30;99.90;;;;;;5053007;28;20056;-70
2023/12/15 05:40:24;;;;;;;1999.90;999.90;;;7.30;99.90;;;;;;5051994;28;20032;-71
2023/12/15 05:42:49;;;;;;;1999.90;999.90;;;7.30;99.90;;;;;;5047822;28;20062;-71
2023/12/15 05:45:15;;;;;;;1999.90;999.90;;;7.30;99.90;;;;;;5037127;28;20025;-71
2023/12/15 05:47:41;;;;;;;1999.90;999.90;;;7.30;99.90;;;;;;5033011;28;20045;-71
2023/12/15 05:50:07;;;;;;;1999.90;999.90;;;7.40;99.90;;;;;;5033718;28;20496;-71
2023/12/15 05:52:33;;;;;;;1999.90;999.90;;;7.40;99.90;;;;;;5032605;28;20022;-71
2023/12/15 05:54:58;;;;;;;1999.90;999.90;;;7.40;99.90;;;;;;5033337;28;20037;-71
2023/12/15 05:57:24;;;;;;;1999.90;999.90;;;7.40;99.90;;;;;;5032593;28;20383;-71
2023/12/15 05:59:50;;;;;;;1999.90;999.90;;;7.40;99.90;;;;;;5033106;28;20034;-71
2023/12/15 06:02:16;;;;;;;1999.90;999.90;;;7.40;99.90;;;;;;5035493;28;20029;-71
2023/12/15 06:04:41;;;;;;;1999.90;999.90;;;7.40;99.90;;;;;;5032845;28;20064;-71
2023/12/15 06:07:09;;;;;;;1999.90;999.90;;;7.40;99.90;;;;;;5028831;28;20021;-71
2023/12/15 06:09:36;;;;;;;1999.90;999.90;;;7.40;99.90;;;;;;5036985;28;20037;-71
2023/12/15 06:12:02;;;;;;;1999.90;999.90;;;7.40;99.90;;;;;;5037362;28;20091;-71
2023/12/15 06:14:28;;;;;;;1999.90;999.90;;;7.40;99.90;;;;;;5035861;28;20397;-70
2023/12/15 06:16:54;;;;;;;1999.90;999.90;;;7.40;99.90;;;;;;5037007;28;20060;-71
2023/12/15 06:19:19;;;;;;;1999.90;999.90;;;7.40;99.90;;;;;;5025282;28;20022;-71
2023/12/15 06:21:45;;;;;;;1999.90;999.90;;;7.40;99.90;;;;;;5034990;28;20031;-71
2023/12/15 06:24:11;;;;;;;1999.90;999.90;;;7.40;99.90;;;;;;5034464;28;20341;-70
2023/12/15 06:26:36;;;;;;;1999.90;999.90;;;7.40;99.90;;;;;;5036237;28;20037;-70
2023/12/15 06:29:02;;;;;;;1999.90;999.90;;;7.40;99.90;;;;;;5029148;28;20021;-70
2023/12/15 06:31:29;;;;;;;1999.90;999.90;;;7.40;99.90;;;;;;5016280;28;20108;-70
2023/12/15 06:33:55;;;;;;;1999.90;999.90;;;7.40;99.90;;;;;;5035435;28;20029;-71
2023/12/15 06:36:21;;;;;;;1999.90;999.90;;;7.40;99.90;;;;;;5036378;28;20087;-71
2023/12/15 06:38:47;;;;;;;1999.90;999.90;;;7.30;99.90;;;;;;5031980;28;20105;-71
2023/12/15 06:41:13;;;;;;;1999.90;999.90;;;7.30;99.90;;;;;;5026889;28;20045;-71
2023/12/15 06:43:43;;;;;;;1999.90;999.90;;;7.40;99.90;;;;;;5028265;28;20037;-71
2023/12/15 06:46:09;;;;;;;1999.90;999.90;;;7.30;99.90;;;;;;5035337;28;20072;-71
2023/12/15 06:48:35;;;;;;;1999.90;999.90;;;7.40;99.90;;;;;;5036464;28;20049;-71
2023/12/15 06:51:01;;;;;;;1999.90;999.90;;;7.40;99.90;;;;;;5035994;28;20424;-71
2023/12/15 06:53:27;;;;;;;1999.90;999.90;;;7.40;99.90;;;;;;5035132;28;20444;-71
2023/12/15 06:55:52;;;;;;;1999.90;999.90;;;7.40;99.90;;;;;;5035761;28;20049;-71
2023/12/15 06:58:19;;;;;;;1999.90;999.90;;;7.40;99.90;;;;;;5036105;28;20420;-71
2023/12/15 07:00:44;;;;;;;1999.90;999.90;;;7.40;99.90;;;;;;5031652;28;20040;-71
2023/12/15 07:03:10;;;;;;;1999.90;999.90;;;7.40;99.90;;;;;;5037579;28;20040;-71
2023/12/15 07:05:36;;;;;;;1999.90;999.90;;;7.40;99.90;;;;;;5037287;28;20026;-70
2023/12/15 07:08:02;;;;;;;1999.90;999.90;;;7.40;99.90;;;;;;5035891;28;20017;-71
2023/12/15 07:10:28;;;;;;;1999.90;999.90;;;7.40;99.90;;;;;;5037990;28;20050;-71
2023/12/15 07:12:54;;;;;;;1999.90;999.90;;;7.40;99.90;;;;;;5035702;28;20374;-70
2023/12/15 07:15:20;;;;;;;1999.90;999.90;;;7.40;99.90;;;;;;5030983;28;20029;-71
2023/12/15 07:17:45;;;;;;;1999.90;999.90;;;7.40;99.90;;;;;;5030502;28;20066;-71
2023/12/15 07:20:11;;;;;;;1999.90;999.90;;;7.40;99.90;;;;;;5028218;28;20116;-70
2023/12/15 07:22:37;;;;;;;1999.90;999.90;;;7.40;99.90;;;;;;5033354;28;20056;-71
2023/12/15 07:25:03;;;;;;;1999.90;999.90;;;7.40;99.90;;;;;;5031615;28;20033;-70
2023/12/15 07:27:29;;;;;;;1999.90;999.90;;;7.40;99.90;;;;;;5037280;28;20047;-71
2023/12/15 07:29:55;;;;;;;1999.90;999.90;;;7.40;99.90;;;;;;5032210;28;20025;-71
2023/12/15 07:32:21;;;;;;;1999.90;999.90;;;7.40;99.90;;;;;;5034807;28;20026;-70
2023/12/15 07:34:46;;;;;;;1999.90;999.90;;;7.40;99.90;;;;;;5046058;28;20036;-70
2023/12/15 07:37:12;;;;;;;1999.90;999.90;;;7.50;99.90;;;;;;5029445;28;20033;-70
2023/12/15 07:39:38;;;;;;;1999.90;999.90;;;7.50;99.90;;;;;;5030082;28;20459;-70
2023/12/15 07:42:04;;;;;;;1999.90;999.90;;;7.50;99.90;;;;;;5022027;28;20037;-70
2023/12/15 07:44:30;;;;;;;1999.90;999.90;;;7.50;99.90;;;;;;5029977;28;20033;-71
2023/12/15 07:46:56;;;;;;;1999.90;999.90;;;7.50;99.90;;;;;;5029410;28;20336;-71
2023/12/15 07:49:23;;;;;;;1999.90;999.90;;;7.50;99.90;;;;;;5031421;28;20039;-71
2023/12/15 07:51:49;;;;;;;1999.90;999.90;;;7.50;99.90;;;;;;5034281;28;20029;-71
2023/12/15 07:54:16;;;;;;;1999.90;999.90;;;7.50;99.90;;;;;;5028297;28;20350;-70
2023/12/15 07:56:41;;;;;;;1999.90;999.90;;;7.50;99.90;;;;;;5032408;28;20431;-71
2023/12/15 07:59:08;;;;;;;1999.90;999.90;;;7.60;99.90;;;;;;5028713;28;20032;-71
2023/12/15 08:01:34;;;;;;;1999.90;999.90;;;7.50;99.90;;;;;;5030852;28;20036;-71
2023/12/15 08:04:00;;;;;;;1999.90;999.90;;;7.50;99.90;;;;;;5024806;28;20152;-71
2023/12/15 08:06:26;;;;;;;1999.90;999.90;;;7.50;99.90;;;;;;5030477;28;20100;-71
2023/12/15 08:08:52;;;;;;;1999.90;999.90;;;7.50;99.90;;;;;;5023052;28;20405;-70
2023/12/15 08:11:18;;;;;;;1999.90;999.90;;;7.60;99.90;;;;;;5027545;28;20014;-70
2023/12/15 08:13:44;;;;;;;1999.90;999.90;;;7.50;99.90;;;;;;5032551;28;20030;-70
2023/12/15 08:16:11;;;;;;;1999.90;999.90;;;7.50;99.90;;;;;;5034543;28;20143;-71
2023/12/15 08:18:38;;;;;;;1999.90;999.90;;;7.60;99.90;;;;;;5032532;28;20052;-70
2023/12/15 08:21:04;;;;;;;1999.90;999.90;;;7.60;99.90;;;;;;5026262;28;20068;-71
2023/12/15 08:23:30;;;;;;;1999.90;999.90;;;7.60;99.90;;;;;;5033646;28;20037;-70
2023/12/15 08:25:56;;;;;;;1999.90;999.90;;;7.60;99.90;;;;;;5029425;28;20037;-70
2023/12/15 08:28:22;;;;;;;1999.90;999.90;;;7.60;99.90;;;;;;5026425;28;20033;-71
2023/12/15 08:30:49;;;;;;;1999.90;999.90;;;7.60;99.90;;;;;;5033538;28;20022;-71
2023/12/15 08:33:15;;;;;;;1999.90;999.90;;;7.70;99.90;;;;;;5028753;28;20025;-70
2023/12/15 08:35:41;;;;;;;1999.90;999.90;;;7.70;99.90;;;;;;5032473;28;20034;-71
2023/12/15 08:38:07;;;;;;;1999.90;999.90;;;7.70;99.90;;;;;;5035187;28;20108;-71
2023/12/15 08:40:32;;;;;;;1999.90;999.90;;;7.70;99.90;;;;;;5031376;28;20041;-71
2023/12/15 08:42:58;;;;;;;1999.90;999.90;;;7.70;99.90;;;;;;5041505;28;20030;-71
2023/12/15 08:45:24;;;;;;;1999.90;999.90;;;7.70;99.90;;;;;;5038754;28;20147;-71
2023/12/15 08:47:50;;;;;;;1999.90;999.90;;;7.80;99.90;;;;;;5045843;28;20021;-71
2023/12/15 08:50:16;;;;;;;1999.90;999.90;;;7.80;99.90;;;;;;5029616;28;20029;-71
2023/12/15 08:52:43;;;;;;;1999.90;999.90;;;7.90;99.90;;;;;;5028603;28;20021;-71
2023/12/15 08:55:09;;;;;;;1999.90;999.90;;;7.90;99.90;;;;;;5026096;28;20060;-71
2023/12/15 08:57:35;;;;;;;1999.90;999.90;;;7.90;99.90;;;;;;5031848;28;20037;-71
2023/12/15 09:00:00;;;;;;;1999.90;999.90;;;7.90;99.90;;;;;;5034228;28;20044;-71
2023/12/15 09:02:26;;;;;;;1999.90;999.90;;;8.00;99.90;;;;;;5030333;28;20412;-71
2023/12/15 09:04:52;;;;;;;1999.90;999.90;;;8.00;99.90;;;;;;5039714;28;20312;-71
2023/12/15 09:07:18;;;;;;;1999.90;999.90;;;8.10;99.90;;;;;;5042447;28;20051;-71
2023/12/15 09:09:44;;;;;;;1999.90;999.90;;;8.10;99.90;;;;;;5030634;28;20076;-71
2023/12/15 09:12:10;;;;;;;1999.90;999.90;;;8.10;99.90;;;;;;5021127;28;20049;-70
2023/12/15 09:14:37;;;;;;;1999.90;999.90;;;8.10;99.90;;;;;;5029260;28;20075;-71
2023/12/15 09:17:03;;;;;;;1999.90;999.90;;;8.20;99.90;;;;;;5037656;28;20060;-70
2023/12/15 09:19:30;;;;;;;1999.90;999.90;;;8.30;99.90;;;;;;5032449;28;20029;-70
2023/12/15 09:21:56;;;;;;;1999.90;999.90;;;8.30;99.90;;;;;;5038102;28;20156;-71
2023/12/15 09:24:21;;;;;;;1999.90;999.90;;;8.30;99.90;;;;;;5035113;28;20097;-71
2023/12/15 09:26:47;;;;;;;1999.90;999.90;;;8.40;99.90;;;;;;5037245;28;20155;-70
2023/12/15 09:29:14;;;;;;;1999.90;999.90;;;8.40;99.90;;;;;;5033650;28;20398;-71
2023/12/15 09:31:41;;;;;;;1999.90;999.90;;;8.40;99.90;;;;;;5041275;28;20029;-71
2023/12/15 09:34:07;;;;;;;1999.90;999.90;;;8.40;99.90;;;;;;5038783;28;20017;-71
2023/12/15 09:36:34;;;;;;;1999.90;999.90;;;8.40;99.90;;;;;;5036080;28;20433;-71
2023/12/15 09:39:00;;;;;;;1999.90;999.90;;;8.50;99.90;;;;;;5023020;28;20199;-71
2023/12/15 09:41:26;;;;;;;1999.90;999.90;;;8.50;99.90;;;;;;5027544;28;20136;-71
2023/12/15 09:43:52;;;;;;;1999.90;999.90;;;8.40;99.90;;;;;;5029779;28;20028;-71
2023/12/15 09:46:17;;;;;;;1999.90;999.90;;;8.40;99.90;;;;;;5035299;28;20053;-71
2023/12/15 09:48:44;;;;;;;1999.90;999.90;;;8.40;99.90;;;;;;5026305;28;20130;-71
2023/12/15 09:51:25;;;;;;;1999.90;999.90;;;8.40;99.90;;;;;;5025996;28;20022;-71
2023/12/15 09:53:52;;;;;;;1999.90;999.90;;;8.50;99.90;;;;;;5027459;28;20061;-71
2023/12/15 09:56:18;;;;;;;1999.90;999.90;;;8.50;99.90;;;;;;5021667;28;20409;-71
2023/12/15 09:58:44;;;;;;;1999.90;999.90;;;8.50;99.90;;;;;;5040529;28;20026;-71
2023/12/15 10:01:11;;;;;;;1999.90;999.90;;;8.60;99.90;;;;;;5048498;28;20494;-70
2023/12/15 10:03:37;;;;;;;1999.90;999.90;;;8.70;99.90;;;;;;5029240;28;20114;-70
2023/12/15 10:06:03;;;;;;;1999.90;999.90;;;8.80;99.90;;;;;;5028578;28;20066;-71
2023/12/15 10:08:45;;;;;;;1999.90;999.90;;;8.90;99.90;;;;;;5039700;28;20424;-71
2023/12/15 10:11:11;;;;;;;1999.90;999.90;;;8.90;99.90;;;;;;5040728;28;20030;-71
2023/12/15 10:13:40;;;;;;;1999.90;999.90;;;8.90;99.90;;;;;;5027162;28;20018;-71
2023/12/15 10:16:08;;;;;;;1999.90;999.90;;;8.90;99.90;;;;;;5023721;28;20363;-71
2023/12/15 10:18:34;;;;;;;1999.90;999.90;;;8.80;99.90;;;;;;5026046;28;20162;-71
2023/12/15 10:20:59;;;;;;;1999.90;999.90;;;8.90;99.90;;;;;;5023661;28;20425;-71
2023/12/15 10:23:27;;;;;;;1999.90;999.90;;;8.90;99.90;;;;;;5029725;28;20416;-71
2023/12/15 10:25:53;;;;;;;1999.90;999.90;;;9.00;99.90;;;;;;5032096;28;20029;-71
2023/12/15 10:28:20;;;;;;;1999.90;999.90;;;9.00;99.90;;;;;;5030329;28;20053;-71
2023/12/15 10:30:46;;;;;;;1999.90;999.90;;;9.10;99.90;;;;;;5034327;28;20022;-71
2023/12/15 10:33:17;;;;;;;1999.90;999.90;;;9.10;99.90;;;;;;5034155;28;20387;-70
2023/12/15 10:35:49;;;;;;;1999.90;999.90;;;9.10;99.90;;;;;;5039441;28;20040;-71
2023/12/15 10:38:15;;;;;;;1999.90;999.90;;;9.10;99.90;;;;;;5038839;28;20064;-71
2023/12/15 10:40:44;;;;;;;1999.90;999.90;;;9.10;99.90;;;;;;5032078;28;20050;-71
2023/12/15 10:43:10;;;;;;;1999.90;999.90;;;9.10;99.90;;;;;;5026115;28;20026;-70
2023/12/15 10:45:37;;;;;;;1999.90;999.90;;;9.20;99.90;;;;;;5034387;28;20041;-71
2023/12/15 10:48:03;;;;;;;1999.90;999.90;;;9.20;99.90;;;;;;5035870;28;20084;-71
2023/12/15 10:50:30;;;;;;;1999.90;999.90;;;9.30;99.90;;;;;;5036945;28;20075;-71
2023/12/15 10:52:57;;;;;;;1999.90;999.90;;;9.30;99.90;;;;;;5020931;28;20048;-71
2023/12/15 10:55:25;;;;;;;1999.90;999.90;;;9.30;99.90;;;;;;5036426;28;20025;-70
2023/12/15 10:57:51;;;;;;;1999.90;999.90;;;9.40;99.90;;;;;;5032760;28;20033;-71
2023/12/15 11:00:18;;;;;;;1999.90;999.90;;;9.40;99.90;;;;;;5035715;28;20684;-71
2023/12/15 11:02:45;;;;;;;1999.90;999.90;;;9.40;99.90;;;;;;5036483;28;20061;-71
2023/12/15 11:05:11;;;;;;;1999.90;999.90;;;9.50;99.90;;;;;;5041087;28;20033;-71
2023/12/15 11:07:39;;;;;;;1999.90;999.90;;;9.50;99.90;;;;;;5039478;28;20108;-71
2023/12/15 11:10:05;;;;;;;1999.90;999.90;;;9.60;99.90;;;;;;5043350;28;20025;-71
2023/12/15 11:12:33;;;;;;;1999.90;999.90;;;9.60;99.90;;;;;;5041144;28;20017;-71
2023/12/15 11:15:07;;;;;;;1999.90;999.90;;;9.70;99.90;;;;;;5031571;28;20040;-71
2023/12/15 11:17:37;;;;;;;1999.90;999.90;;;9.70;99.90;;;;;;5025025;28;20033;-71
2023/12/15 11:20:08;;;;;;;1999.90;999.90;;;9.80;99.90;;;;;;5027860;28;20022;-71
2023/12/15 11:22:41;;;;;;;1999.90;999.90;;;9.80;99.90;;;;;;5028236;28;20030;-71
2023/12/15 11:25:08;;;;;;;1999.90;999.90;;;9.90;99.90;;;;;;5034999;28;20116;-71
2023/12/15 11:27:57;;;;;;;1999.90;999.90;;;9.90;99.90;;;;;;5035886;28;20022;-71
2023/12/15 11:30:34;;;;;;;1999.90;999.90;;;9.90;99.90;;;;;;5035841;28;20022;-70
2023/12/15 11:33:00;;;;;;;1999.90;999.90;;;10.00;99.90;;;;;;5035441;28;20044;-71
2023/12/15 11:35:28;;;;;;;1999.90;999.90;;;10.00;99.90;;;;;;5028372;28;20416;-71
2023/12/15 11:37:56;;;;;;;1999.90;999.90;;;10.00;99.90;;;;;;5026608;28;20037;-71
2023/12/15 11:40:24;;;;;;;1999.90;999.90;;;10.10;99.90;;;;;;5035415;28;20051;-71
2023/12/15 11:42:51;;;;;;;1999.90;999.90;;;10.10;99.90;;;;;;5033624;28;20044;-71
2023/12/15 11:45:17;;;;;;;1999.90;999.90;;;10.10;99.90;;;;;;5037612;28;20025;-71
2023/12/15 11:47:43;;;;;;;;;;;10.30;99.90;;;;;;5030674;28;20536;-71
2023/12/15 11:50:09;;;;;;;1999.90;999.90;;;10.30;99.90;;;;;;5025126;28;19910;-71
2023/12/15 11:52:41;;;;;;;1999.90;999.90;;;10.30;99.90;;;;;;5024403;28;20494;-71
2023/12/15 11:55:07;;;;;;;1999.90;999.90;;;10.30;99.90;;;;;;5029421;28;20152;-71
2023/12/15 11:57:36;;;;;;;1999.90;999.90;;;10.30;99.90;;;;;;5036648;28;20033;-71
2023/12/15 12:00:03;;;;;;;1999.90;999.90;;;10.40;99.90;;;;;;5035047;28;20026;-70
2023/12/15 12:02:29;;;;;;;1999.90;999.90;;;10.40;99.90;;;;;;5026009;28;20503;-70
2023/12/15 12:04:54;;;;;;;1999.90;999.90;;;10.50;99.90;;;;;;5029454;28;20061;-70